Time;durP1;ratioP1;P1;durP2;ratioP2;P2;SDS_P1;SDS_P2;PMS_P1;PMS_P2;Temp;Humidity;BMP_temperature;BMP_pressure;BME280_temperature;BME280_humidity;BME280_pressure;Samples;Min_cycle;Max_cycle;Signal;HPM_P1;HPM_P2
2023/05/25 00:01:03;;;;;;;16.33;3.38;;;;;;;16.71;65.68;102243.25;7360135;19;20023;-67
2023/05/25 00:03:30;;;;;;;15.70;3.60;;;;;;;16.70;66.83;102235.47;7361617;19;20015;-68
2023/05/25 00:06:00;;;;;;;16.70;3.38;;;;;;;16.70;65.31;102240.78;7362004;19;20022;-68
2023/05/25 00:08:28;;;;;;;14.30;3.58;;;;;;;16.67;64.57;102247.22;7362745;19;20042;-67
2023/05/25 00:10:55;;;;;;;12.77;3.78;;;;;;;16.58;65.01;102254.34;7361703;19;20025;-68
2023/05/25 00:13:22;;;;;;;13.98;3.83;;;;;;;16.58;65.69;102254.34;7364631;19;20022;-68
2023/05/25 00:15:49;;;;;;;17.20;3.50;;;;;;;16.57;65.01;102252.63;7360050;19;20028;-68
2023/05/25 00:18:17;;;;;;;13.50;3.03;;;;;;;16.54;65.01;102252.97;7362649;19;20010;-68
2023/05/25 00:20:46;;;;;;;19.83;4.72;;;;;;;16.52;64.89;102254.91;7362537;19;21650;-67
2023/05/25 00:23:13;;;;;;;16.25;3.63;;;;;;;16.52;66.47;102254.91;7361549;19;20157;-68
2023/05/25 00:25:40;;;;;;;14.43;3.92;;;;;;;16.48;65.94;102253.56;7361352;19;20025;-67
2023/05/25 00:28:10;;;;;;;12.23;3.85;;;;;;;16.46;66.82;102252.88;7361533;19;20057;-69
2023/05/25 00:30:37;;;;;;;12.80;3.92;;;;;;;16.48;67.91;102258.06;7358000;19;20022;-67
2023/05/25 00:33:04;;;;;;;7.95;3.47;;;;;;;16.42;68.28;102253.34;7358981;19;20018;-68
2023/05/25 00:35:31;;;;;;;11.70;3.45;;;;;;;16.37;68.75;102256.47;7363746;19;20014;-68
2023/05/25 00:37:58;;;;;;;12.27;4.22;;;;;;;16.35;68.62;102265.59;7361683;19;20018;-68
2023/05/25 00:40:26;;;;;;;15.77;4.00;;;;;;;16.33;69.09;102262.25;7361512;19;20021;-69
2023/05/25 00:42:53;;;;;;;13.40;4.30;;;;;;;16.33;69.19;102262.25;7361763;19;20728;-67
2023/05/25 00:45:20;;;;;;;12.98;3.83;;;;;;;16.29;69.30;102264.41;7357776;19;20030;-66
2023/05/25 00:47:50;;;;;;;13.00;4.22;;;;;;;16.26;69.54;102270.00;7359010;19;20014;-68
2023/05/25 00:50:30;;;;;;;17.25;4.35;;;;;;;16.24;69.91;102270.19;7362925;19;20015;-68
2023/05/25 00:52:57;;;;;;;10.90;4.55;;;;;;;16.22;70.25;102271.31;7362413;19;20014;-67
2023/05/25 00:55:28;;;;;;;18.65;5.03;;;;;;;16.15;70.80;102270.28;7362373;19;20048;-67
2023/05/25 00:58:02;;;;;;;14.27;4.88;;;;;;;16.14;70.78;102277.41;7363925;19;20014;-68
2023/05/25 01:00:31;;;;;;;12.70;4.80;;;;;;;16.11;71.38;102277.69;7358150;19;20014;-68
2023/05/25 01:03:02;;;;;;;13.88;3.92;;;;;;;16.11;71.55;102277.69;7356508;19;20018;-69
2023/05/25 01:05:33;;;;;;;14.10;4.57;;;;;;;16.08;71.20;102274.50;7359498;19;21652;-67
2023/05/25 01:08:03;;;;;;;16.00;4.07;;;;;;;16.05;71.38;102274.84;7360262;19;20579;-67
2023/05/25 01:10:32;;;;;;;15.45;5.13;;;;;;;16.02;72.23;102281.28;7361742;19;20010;-68
2023/05/25 01:13:01;;;;;;;16.67;4.10;;;;;;;16.03;73.22;102288.25;7359190;19;20014;-68
2023/05/25 01:15:29;;;;;;;13.55;4.40;;;;;;;16.03;72.22;102287.41;7355296;19;20105;-69
2023/05/25 01:17:58;;;;;;;15.77;5.38;;;;;;;16.01;72.17;102286.72;7360621;19;20045;-67
2023/05/25 01:20:28;;;;;;;18.15;4.85;;;;;;;16.00;72.66;102291.19;7356871;19;21520;-68
2023/05/25 01:23:04;;;;;;;15.85;4.32;;;;;;;15.99;73.29;102294.88;7363203;19;20377;-68
2023/05/25 01:25:35;;;;;;;19.33;4.13;;;;;;;15.96;72.13;102284.53;7364998;19;20034;-68
2023/05/25 01:28:08;;;;;;;14.45;3.88;;;;;;;15.92;72.32;102279.69;7363438;19;20097;-68
2023/05/25 01:30:39;;;;;;;18.77;4.88;;;;;;;15.88;72.38;102289.78;7357642;19;20864;-67
2023/05/25 01:33:06;;;;;;;13.02;4.05;;;;;;;15.86;72.91;102290.91;7361659;19;20036;-68
2023/05/25 01:35:35;;;;;;;12.35;3.97;;;;;;;15.81;72.60;102291.34;7360277;19;20052;-67
2023/05/25 01:38:02;;;;;;;12.70;4.15;;;;;;;15.81;72.55;102284.22;7359214;19;20784;-68
2023/05/25 01:40:29;;;;;;;14.05;4.15;;;;;;;15.76;72.44;102291.81;7361492;19;21047;-68
2023/05/25 01:42:56;;;;;;;12.57;4.10;;;;;;;15.71;72.95;102290.59;7361488;19;20555;-67
2023/05/25 01:45:24;;;;;;;15.05;4.00;;;;;;;15.68;73.12;102294.38;7357075;19;20138;-68
2023/05/25 01:47:53;;;;;;;13.68;4.03;;;;;;;15.66;73.26;102290.19;7359245;19;20035;-66
2023/05/25 01:50:33;;;;;;;15.73;4.30;;;;;;;15.67;73.41;102294.53;7361140;19;20374;-69
2023/05/25 01:53:03;;;;;;;15.00;4.28;;;;;;;15.68;73.54;102293.53;7359172;19;20119;-67
2023/05/25 01:55:36;;;;;;;15.30;4.97;;;;;;;15.62;73.86;102288.84;7357846;19;20013;-67
2023/05/25 01:58:05;;;;;;;18.45;4.97;;;;;;;15.57;74.14;102291.94;7358961;19;20110;-66
2023/05/25 02:00:34;;;;;;;16.77;5.20;;;;;;;15.52;74.56;102288.06;7356333;19;20017;-68
2023/05/25 02:03:02;;;;;;;15.60;4.82;;;;;;;15.49;74.57;102291.78;7358291;19;20014;-67
2023/05/25 02:05:30;;;;;;;16.23;4.68;;;;;;;15.44;74.90;102301.22;7358879;19;20022;-68
2023/05/25 02:07:57;;;;;;;13.55;4.43;;;;;;;15.39;75.37;102297.16;7360960;19;20055;-68
2023/05/25 02:10:24;;;;;;;18.88;5.10;;;;;;;15.40;75.25;102293.53;7359257;19;20434;-67
2023/05/25 02:12:51;;;;;;;15.50;4.93;;;;;;;15.44;75.34;102298.56;7359710;19;20015;-68
2023/05/25 02:15:18;;;;;;;14.95;4.28;;;;;;;15.44;75.64;102299.38;7356844;19;20031;-67
2023/05/25 02:17:45;;;;;;;15.90;4.35;;;;;;;15.46;74.68;102301.88;7358342;19;20370;-67
2023/05/25 02:20:12;;;;;;;16.60;4.05;;;;;;;15.44;74.78;102299.38;7359401;19;20042;-67
2023/05/25 02:22:39;;;;;;;12.88;4.00;;;;;;;15.44;74.84;102293.25;7356603;19;20709;-67
2023/05/25 02:25:07;;;;;;;12.90;4.68;;;;;;;15.47;74.87;102288.47;7359476;19;20117;-67
2023/05/25 02:27:35;;;;;;;14.10;3.90;;;;;;;15.52;73.51;102296.84;7359002;19;20025;-67
2023/05/25 02:30:03;;;;;;;15.77;3.58;;;;;;;15.51;73.45;102295.19;7358813;19;20820;-67
2023/05/25 02:32:32;;;;;;;15.90;4.10;;;;;;;15.46;73.71;102292.09;7355991;19;20022;-68
2023/05/25 02:34:59;;;;;;;12.65;3.55;;;;;;;15.43;74.00;102295.06;7359350;19;20023;-68
2023/05/25 02:37:29;;;;;;;12.65;2.95;;;;;;;15.45;72.62;102294.91;7357965;19;20025;-67
2023/05/25 02:39:56;;;;;;;11.68;3.40;;;;;;;15.49;72.14;102301.59;7358620;19;21250;-67
2023/05/25 02:42:23;;;;;;;13.23;3.13;;;;;;;15.51;71.90;102304.91;7358848;19;20097;-68
2023/05/25 02:44:50;;;;;;;8.25;2.67;;;;;;;15.48;71.56;102299.91;7359139;19;20025;-67
2023/05/25 02:47:17;;;;;;;7.47;2.90;;;;;;;15.49;71.21;102294.44;7352567;19;20010;-66
2023/05/25 02:49:45;;;;;;;11.25;2.10;;;;;;;15.47;71.38;102301.75;7359615;19;20352;-67
2023/05/25 02:52:12;;;;;;;8.02;2.08;;;;;;;15.48;71.97;102300.75;7358001;19;20368;-67
2023/05/25 02:54:39;;;;;;;11.82;2.88;;;;;;;15.50;72.51;102304.09;7358788;19;20498;-67
2023/05/25 02:57:07;;;;;;;10.07;3.30;;;;;;;15.50;73.24;102303.25;7355671;19;20025;-67
2023/05/25 02:59:34;;;;;;;11.30;3.75;;;;;;;15.50;73.44;102303.25;7357803;19;20561;-69
2023/05/25 03:02:01;;;;;;;11.80;3.35;;;;;;;15.53;73.08;102308.31;7356673;19;20530;-68
2023/05/25 03:04:32;;;;;;;15.02;3.80;;;;;;;15.51;73.01;102313.75;7359875;19;20015;-68
2023/05/25 03:07:00;;;;;;;15.18;3.10;;;;;;;15.51;73.45;102302.25;7352996;19;20007;-66
2023/05/25 03:09:28;;;;;;;17.45;5.47;;;;;;;15.47;73.84;102299.09;7359142;19;20352;-68
2023/05/25 03:11:55;;;;;;;10.95;4.03;;;;;;;15.44;73.81;102304.66;7359662;19;20597;-68
2023/05/25 03:14:22;;;;;;;14.18;4.15;;;;;;;15.44;73.56;102309.16;7359040;19;20372;-68
2023/05/25 03:16:49;;;;;;;16.08;4.20;;;;;;;15.41;74.07;102321.72;7354159;19;20083;-68
2023/05/25 03:19:19;;;;;;;16.13;4.05;;;;;;;15.45;73.78;102316.13;7357382;19;20753;-67
2023/05/25 03:21:46;;;;;;;18.08;5.15;;;;;;;15.41;73.49;102313.78;7355942;19;20022;-67
2023/05/25 03:24:13;;;;;;;13.20;4.00;;;;;;;15.44;74.31;102317.94;7358426;19;20731;-69
2023/05/25 03:26:40;;;;;;;13.68;3.70;;;;;;;15.47;74.39;102309.69;7355275;19;20013;-68
2023/05/25 03:29:07;;;;;;;14.85;4.88;;;;;;;15.47;73.06;102312.34;7356725;19;20089;-67
2023/05/25 03:31:35;;;;;;;11.95;3.85;;;;;;;15.48;72.66;102311.38;7353130;19;20028;-69
2023/05/25 03:34:03;;;;;;;9.52;2.78;;;;;;;15.49;72.18;102322.81;7358216;19;20617;-67
2023/05/25 03:36:31;;;;;;;11.45;3.38;;;;;;;15.50;71.78;102311.19;7357062;19;20018;-68
2023/05/25 03:38:58;;;;;;;12.48;3.20;;;;;;;15.50;71.25;102314.69;7358182;19;20902;-67
2023/05/25 03:41:29;;;;;;;11.50;2.97;;;;;;;15.51;70.73;102311.09;7358707;19;21678;-68
2023/05/25 03:43:56;;;;;;;11.43;2.58;;;;;;;15.47;70.41;102317.66;7361335;19;20856;-67
2023/05/25 03:46:23;;;;;;;9.32;2.88;;;;;;;15.52;69.80;102318.09;7357249;19;20017;-69
2023/05/25 03:48:50;;;;;;;10.95;2.85;;;;;;;15.53;69.01;102318.91;7359317;19;20011;-67
2023/05/25 03:51:17;;;;;;;8.98;2.25;;;;;;;15.47;69.35;102317.66;7358971;19;20014;-67
2023/05/25 03:53:44;;;;;;;8.93;2.33;;;;;;;15.43;69.40;102313.63;7361154;19;20045;-67
2023/05/25 03:56:11;;;;;;;12.15;2.42;;;;;;;15.40;69.18;102320.06;7355314;19;20011;-68
2023/05/25 03:58:38;;;;;;;6.85;1.60;;;;;;;15.38;67.89;102322.03;7337988;19;20015;-67
2023/05/25 04:01:08;;;;;;;7.05;1.67;;;;;;;15.38;67.57;102313.25;7340752;19;20033;-67
2023/05/25 04:03:35;;;;;;;8.70;2.15;;;;;;;15.35;67.99;102317.00;7349702;19;21006;-67
2023/05/25 04:06:03;;;;;;;8.27;1.90;;;;;;;15.35;68.71;102321.47;7347898;19;20025;-67
2023/05/25 04:08:31;;;;;;;10.35;2.03;;;;;;;15.35;68.50;102316.16;7347056;19;20085;-68
2023/05/25 04:10:58;;;;;;;6.70;1.83;;;;;;;15.35;67.14;102322.31;7345525;19;20032;-68
2023/05/25 04:13:25;;;;;;;9.85;1.80;;;;;;;15.42;66.66;102325.22;7350714;19;20014;-68
2023/05/25 04:15:52;;;;;;;6.53;1.60;;;;;;;15.43;66.57;102323.41;7348953;19;20018;-68
2023/05/25 04:18:19;;;;;;;8.98;2.53;;;;;;;15.42;66.69;102319.91;7355483;19;21029;-69
2023/05/25 04:20:46;;;;;;;9.18;1.60;;;;;;;15.46;66.82;102323.09;7351982;19;20022;-67
2023/05/25 04:23:13;;;;;;;8.07;2.17;;;;;;;15.48;66.62;102323.81;7360530;19;20123;-68
2023/05/25 04:25:41;;;;;;;9.07;1.75;;;;;;;15.50;66.01;102322.66;7355820;19;20703;-68
2023/05/25 04:28:08;;;;;;;8.25;2.17;;;;;;;15.51;65.58;102327.00;7350244;19;20106;-68
2023/05/25 04:30:35;;;;;;;8.40;1.50;;;;;;;15.54;65.62;102331.22;7356130;19;20014;-68
2023/05/25 04:33:02;;;;;;;10.30;1.90;;;;;;;15.56;65.57;102332.72;7360363;19;20565;-68
2023/05/25 04:35:30;;;;;;;8.23;1.63;;;;;;;15.57;65.28;102336.22;7358833;19;20081;-67
2023/05/25 04:38:01;;;;;;;8.45;1.40;;;;;;;15.60;66.33;102342.03;7358124;19;20337;-67
2023/05/25 04:40:28;;;;;;;7.20;1.30;;;;;;;15.62;65.37;102336.59;7359251;19;20043;-67
2023/05/25 04:42:56;;;;;;;9.25;1.52;;;;;;;15.62;65.04;102336.59;7359631;19;20015;-67
2023/05/25 04:45:23;;;;;;;10.27;1.42;;;;;;;15.66;64.59;102337.97;7358820;19;20019;-68
2023/05/25 04:47:50;;;;;;;7.00;1.58;;;;;;;15.69;64.15;102338.53;7358370;19;20965;-68
2023/05/25 04:50:17;;;;;;;5.93;1.60;;;;;;;15.70;63.76;102342.81;7362874;19;20803;-68
2023/05/25 04:52:44;;;;;;;8.52;1.15;;;;;;;15.72;62.88;102351.47;7361625;19;20018;-69
2023/05/25 04:55:11;;;;;;;14.95;1.90;;;;;;;15.70;63.07;102347.28;7359743;19;20018;-68
2023/05/25 04:57:38;;;;;;;6.28;1.30;;;;;;;15.66;63.57;102354.72;7359434;19;20028;-66
2023/05/25 05:00:08;;;;;;;8.63;1.50;;;;;;;15.66;63.89;102352.06;7355144;19;20023;-68
2023/05/25 05:02:36;;;;;;;6.95;1.70;;;;;;;15.68;63.78;102355.44;7358325;19;20022;-68
2023/05/25 05:05:03;;;;;;;7.32;1.48;;;;;;;15.73;62.91;102350.50;7357829;19;20031;-67
2023/05/25 05:07:30;;;;;;;6.28;1.67;;;;;;;15.74;63.10;102356.66;7357221;19;20007;-68
2023/05/25 05:09:57;;;;;;;8.20;1.67;;;;;;;15.70;64.37;102345.47;7357148;19;20018;-67
2023/05/25 05:12:24;;;;;;;8.43;1.75;;;;;;;15.69;63.39;102354.44;7361788;19;20015;-66
2023/05/25 05:14:52;;;;;;;5.30;1.35;;;;;;;15.68;63.56;102358.06;7357144;19;20013;-67
2023/05/25 05:17:19;;;;;;;7.28;1.83;;;;;;;15.72;63.17;102354.13;7356318;19;20014;-67
2023/05/25 05:19:46;;;;;;;6.88;1.92;;;;;;;15.77;63.56;102359.00;7359742;19;20014;-68
2023/05/25 05:22:14;;;;;;;4.55;1.60;;;;;;;15.74;63.55;102354.00;7360049;19;20094;-67
2023/05/25 05:24:42;;;;;;;9.35;1.63;;;;;;;15.72;63.48;102359.44;7359701;19;20026;-67
2023/05/25 05:27:09;;;;;;;6.63;1.90;;;;;;;15.72;64.12;102361.25;7359296;19;20535;-68
2023/05/25 05:29:37;;;;;;;10.60;1.92;;;;;;;15.76;65.17;102374.09;7361001;19;20085;-68
2023/05/25 05:32:05;;;;;;;10.77;1.92;;;;;;;15.78;64.25;102366.81;7358838;19;20825;-70
2023/05/25 05:34:32;;;;;;;6.07;2.22;;;;;;;15.84;63.88;102368.03;7362687;19;21315;-67
2023/05/25 05:36:59;;;;;;;7.75;1.40;;;;;;;15.86;63.90;102379.34;7361644;19;20082;-69
2023/05/25 05:39:27;;;;;;;7.50;1.98;;;;;;;15.83;63.78;102387.59;7361139;19;20039;-68
2023/05/25 05:41:54;;;;;;;8.73;2.22;;;;;;;15.78;64.00;102387.22;7360577;19;20380;-68
2023/05/25 05:44:22;;;;;;;7.13;1.83;;;;;;;15.73;64.65;102379.69;7358768;19;20014;-68
2023/05/25 05:46:58;;;;;;;9.48;2.40;;;;;;;15.73;64.42;102378.88;7355947;19;20795;-67
2023/05/25 05:49:28;;;;;;;8.80;1.75;;;;;;;15.69;64.91;102393.41;7358447;19;20101;-68
2023/05/25 05:51:55;;;;;;;11.32;2.40;;;;;;;15.73;65.38;102394.78;7363144;19;20033;-68
2023/05/25 05:54:23;;;;;;;10.50;2.20;;;;;;;15.73;64.92;102389.47;7364261;19;20100;-68
2023/05/25 05:56:50;;;;;;;10.20;2.22;;;;;;;15.74;65.64;102393.81;7363864;19;20014;-69
2023/05/25 05:59:17;;;;;;;7.85;2.50;;;;;;;15.69;65.13;102398.72;7356204;19;20559;-68
2023/05/25 06:01:44;;;;;;;9.15;1.85;;;;;;;15.70;65.22;102401.22;7355838;19;20473;-67
2023/05/25 06:04:11;;;;;;;7.93;1.92;;;;;;;15.70;66.47;102401.22;7362376;19;20082;-67
2023/05/25 06:06:40;;;;;;;7.93;2.30;;;;;;;15.73;66.16;102402.75;7357664;19;20482;-67
2023/05/25 06:09:07;;;;;;;12.43;2.67;;;;;;;15.76;66.32;102403.28;7359849;19;20042;-69
2023/05/25 06:11:36;;;;;;;11.93;2.90;;;;;;;15.81;65.69;102410.78;7363910;19;20343;-67
2023/05/25 06:14:03;;;;;;;9.98;2.63;;;;;;;15.80;65.91;102414.44;7362175;19;20482;-69
2023/05/25 06:16:30;;;;;;;9.80;3.22;;;;;;;15.82;67.60;102409.81;7360027;19;20007;-68
2023/05/25 06:18:57;;;;;;;9.63;2.50;;;;;;;15.93;65.95;102420.25;7363702;19;20106;-68
2023/05/25 06:21:26;;;;;;;6.88;2.35;;;;;;;15.99;66.68;102417.00;7361921;19;20093;-67
2023/05/25 06:23:56;;;;;;;12.15;2.22;;;;;;;16.26;66.17;102418.75;7363725;19;20017;-67
2023/05/25 06:26:23;;;;;;;12.30;2.83;;;;;;;16.48;64.82;102420.16;7362933;19;20011;-67
2023/05/25 06:28:51;;;;;;;10.93;3.47;;;;;;;16.63;64.21;102426.63;7363080;19;20010;-68
2023/05/25 06:31:18;;;;;;;12.18;3.10;;;;;;;16.76;64.48;102416.44;7358595;19;20010;-68
2023/05/25 06:33:45;;;;;;;10.70;3.50;;;;;;;16.98;63.10;102428.41;7363328;19;20057;-67
2023/05/25 06:36:14;;;;;;;10.98;2.53;;;;;;;17.10;64.23;102425.34;7361391;19;20015;-68
2023/05/25 06:38:41;;;;;;;11.18;3.08;;;;;;;17.19;62.80;102430.72;7363706;19;20014;-67
2023/05/25 06:41:11;;;;;;;18.67;3.28;;;;;;;17.17;65.50;102424.75;7360843;19;20805;-68
2023/05/25 06:43:38;;;;;;;11.68;3.90;;;;;;;17.14;63.23;102423.22;7367606;19;20698;-67
2023/05/25 06:46:05;;;;;;;7.78;3.30;;;;;;;17.09;64.04;102422.84;7360294;19;20094;-68
2023/05/25 06:48:33;;;;;;;12.20;3.45;;;;;;;16.80;63.75;102417.81;7362317;19;20459;-68
2023/05/25 06:51:00;;;;;;;15.95;3.25;;;;;;;16.80;64.02;102430.28;7359428;19;20022;-68
2023/05/25 06:53:28;;;;;;;9.48;2.83;;;;;;;16.66;63.80;102431.63;7361891;19;20015;-68
2023/05/25 06:55:55;;;;;;;7.70;2.97;;;;;;;16.55;64.49;102432.69;7362155;19;20011;-72
2023/05/25 06:58:22;;;;;;;12.57;3.58;;;;;;;16.55;65.65;102426.53;7363731;19;20019;-68
2023/05/25 07:00:50;;;;;;;10.05;3.38;;;;;;;16.51;65.75;102426.00;7358054;19;20363;-69
2023/05/25 07:03:17;;;;;;;14.73;3.13;;;;;;;16.47;64.87;102431.75;7361257;19;20362;-68
2023/05/25 07:05:44;;;;;;;10.10;2.35;;;;;;;16.55;64.10;102423.88;7364358;19;20021;-68
2023/05/25 07:08:12;;;;;;;13.18;3.83;;;;;;;16.62;63.99;102438.25;7356050;19;20011;-67
2023/05/25 07:10:39;;;;;;;8.65;3.00;;;;;;;16.68;63.76;102432.31;7363067;19;20082;-67
2023/05/25 07:13:06;;;;;;;12.95;3.00;;;;;;;16.66;63.65;102436.94;7362444;19;21262;-68
2023/05/25 07:15:33;;;;;;;9.77;2.70;;;;;;;16.74;62.46;102433.53;7360606;19;20042;-68
2023/05/25 07:18:01;;;;;;;11.48;2.75;;;;;;;16.78;62.38;102443.72;7364678;19;20011;-68
2023/05/25 07:20:30;;;;;;;12.85;1.88;;;;;;;16.90;62.03;102434.53;7359356;19;20010;-67
2023/05/25 07:22:57;;;;;;;11.52;1.92;;;;;;;16.99;59.74;102430.91;7363672;19;20006;-66
2023/05/25 07:25:25;;;;;;;13.05;1.88;;;;;;;17.06;57.02;102436.47;7364362;19;20046;-68
2023/05/25 07:27:54;;;;;;;6.10;1.00;;;;;;;17.07;58.01;102441.59;7362279;19;20040;-68
2023/05/25 07:30:21;;;;;;;9.88;1.40;;;;;;;17.14;58.25;102439.16;7360419;19;20022;-68
2023/05/25 07:32:48;;;;;;;8.65;1.58;;;;;;;17.43;57.87;102438.84;7360716;19;20018;-67
2023/05/25 07:35:15;;;;;;;8.38;1.42;;;;;;;17.87;56.44;102452.94;7361293;19;20010;-68
2023/05/25 07:37:42;;;;;;;9.90;1.60;;;;;;;18.09;56.68;102451.47;7361620;19;20394;-68
2023/05/25 07:40:10;;;;;;;11.82;2.28;;;;;;;18.42;55.45;102444.41;7361873;19;20339;-68
2023/05/25 07:42:37;;;;;;;12.38;1.98;;;;;;;18.64;55.91;102452.63;7360628;19;20019;-67
2023/05/25 07:45:06;;;;;;;9.10;2.08;;;;;;;19.07;55.72;102443.47;7360722;19;20448;-67
2023/05/25 07:47:33;;;;;;;12.23;1.95;;;;;;;19.55;54.62;102452.41;7356762;19;20102;-66
2023/05/25 07:50:00;;;;;;;8.57;2.47;;;;;;;19.87;52.03;102454.94;7362267;19;20805;-68
2023/05/25 07:52:28;;;;;;;5.82;1.40;;;;;;;19.82;51.99;102457.31;7359394;19;20007;-68
2023/05/25 07:54:55;;;;;;;10.25;1.50;;;;;;;19.84;51.17;102462.50;7368377;19;20021;-68
2023/05/25 07:57:22;;;;;;;8.45;1.65;;;;;;;19.21;53.03;102449.94;7367697;19;20692;-71
2023/05/25 07:59:50;;;;;;;7.05;1.77;;;;;;;19.09;53.70;102456.66;7366703;19;20031;-69
2023/05/25 08:02:20;;;;;;;4.90;1.60;;;;;;;18.82;55.69;102468.50;7363023;19;20038;-67
2023/05/25 08:04:47;;;;;;;10.18;1.98;;;;;;;18.67;55.78;102465.66;7372862;19;20051;-68
2023/05/25 08:07:18;;;;;;;8.88;1.70;;;;;;;18.63;56.29;102474.16;7366591;19;20041;-67
2023/05/25 08:09:46;;;;;;;6.45;1.40;;;;;;;18.62;56.00;102464.47;7368464;19;20017;-67
2023/05/25 08:12:14;;;;;;;10.35;1.50;;;;;;;19.09;54.75;102453.97;7371398;19;21105;-69
2023/05/25 08:15:01;;;;;;;8.05;1.27;;;;;;;19.93;52.28;102462.28;7369479;19;20207;-67
2023/05/25 08:17:29;;;;;;;4.63;1.10;;;;;;;20.39;50.68;102467.75;7365793;19;20022;-67
2023/05/25 08:19:56;;;;;;;5.95;1.13;;;;;;;20.53;50.66;102469.66;7369009;19;20026;-68
2023/05/25 08:22:23;;;;;;;8.80;1.10;;;;;;;21.09;48.38;102467.53;7370398;19;20022;-67
2023/05/25 08:24:51;;;;;;;8.75;1.38;;;;;;;21.21;47.54;102466.97;7369745;19;20022;-68
2023/05/25 08:27:18;;;;;;;9.57;1.50;;;;;;;21.10;47.47;102477.25;7367324;19;20047;-68
2023/05/25 08:29:45;;;;;;;8.07;1.55;;;;;;;20.84;48.47;102477.63;7369961;19;21686;-68
2023/05/25 08:32:12;;;;;;;7.03;1.52;;;;;;;20.66;49.04;102469.09;7365689;19;20035;-68
2023/05/25 08:34:39;;;;;;;7.53;1.23;;;;;;;20.34;49.58;102468.28;7369765;19;20021;-69
2023/05/25 08:37:07;;;;;;;8.50;2.55;;;;;;;19.95;51.45;102460.28;7369905;19;20027;-68
2023/05/25 08:39:36;;;;;;;11.25;1.45;;;;;;;19.69;52.35;102472.22;7368276;19;20041;-68
2023/05/25 08:42:05;;;;;;;9.82;1.75;;;;;;;19.35;53.47;102461.78;7370470;19;20021;-68
2023/05/25 08:44:35;;;;;;;7.38;1.73;;;;;;;19.14;54.23;102460.47;7370938;19;20022;-68
2023/05/25 08:47:06;;;;;;;10.18;1.45;;;;;;;18.89;55.55;102471.34;7360693;19;20615;-68
2023/05/25 08:49:37;;;;;;;10.38;1.90;;;;;;;18.91;55.37;102467.47;7369294;19;20021;-68
2023/05/25 08:52:07;;;;;;;7.65;1.77;;;;;;;18.72;55.96;102470.47;7366006;19;20074;-68
2023/05/25 08:54:36;;;;;;;6.07;1.60;;;;;;;18.66;56.83;102473.81;7368119;19;20014;-67
2023/05/25 08:57:12;;;;;;;12.85;1.60;;;;;;;18.52;57.65;102461.94;7367034;19;20010;-69
2023/05/25 08:59:47;;;;;;;7.70;1.48;;;;;;;18.48;57.74;102476.59;7369217;19;20029;-68
2023/05/25 09:02:33;;;;;;;7.05;1.40;;;;;;;18.47;56.04;102482.09;7361357;19;20123;-68
2023/05/25 09:05:01;;;;;;;9.85;1.52;;;;;;;18.37;56.08;102476.91;7363050;19;20725;-67
2023/05/25 09:07:29;;;;;;;9.25;1.20;;;;;;;18.32;56.94;102482.72;7369653;19;20574;-68
2023/05/25 09:09:57;;;;;;;12.45;1.90;;;;;;;18.37;57.41;102476.91;7367410;19;20011;-68
2023/05/25 09:12:27;;;;;;;7.82;1.50;;;;;;;18.47;57.44;102480.25;7367114;19;20014;-68
2023/05/25 09:14:54;;;;;;;14.88;2.20;;;;;;;18.53;57.89;102476.94;7369783;19;20010;-67
2023/05/25 09:17:22;;;;;;;10.80;2.47;;;;;;;18.62;56.46;102470.66;7361694;19;20011;-68
2023/05/25 09:19:50;;;;;;;10.43;1.83;;;;;;;18.55;56.12;102472.28;7367794;19;20033;-68
2023/05/25 09:22:17;;;;;;;15.77;1.95;;;;;;;18.45;56.14;102473.41;7367596;19;20014;-68
2023/05/25 09:24:46;;;;;;;16.88;2.03;;;;;;;18.40;57.29;102479.22;7366880;19;20014;-68
2023/05/25 09:27:18;;;;;;;9.45;1.60;;;;;;;18.32;56.88;102480.06;7367327;19;20016;-68
2023/05/25 09:29:47;;;;;;;7.22;1.65;;;;;;;18.38;57.38;102487.41;7366388;19;20030;-68
2023/05/25 09:32:15;;;;;;;7.05;1.58;;;;;;;18.46;57.32;102483.91;7364157;19;20089;-68
2023/05/25 09:34:44;;;;;;;8.15;1.55;;;;;;;18.41;58.04;102488.06;7368677;19;20010;-68
2023/05/25 09:37:13;;;;;;;15.02;2.55;;;;;;;18.38;57.96;102494.56;7366998;19;20022;-67
2023/05/25 09:39:42;;;;;;;10.35;1.75;;;;;;;18.32;58.25;102489.88;7371064;19;20025;-67
2023/05/25 09:42:11;;;;;;;13.43;2.92;;;;;;;18.26;58.02;102490.53;7368482;19;20917;-68
2023/05/25 09:44:41;;;;;;;14.18;1.90;;;;;;;18.26;58.47;102499.34;7369986;19;20017;-68
2023/05/25 09:47:09;;;;;;;8.10;1.55;;;;;;;18.29;58.63;102493.69;7363328;19;20097;-66
2023/05/25 09:49:36;;;;;;;9.32;1.60;;;;;;;18.34;58.92;102499.38;7365985;19;20475;-67
2023/05/25 09:52:05;;;;;;;10.70;1.48;;;;;;;18.37;58.66;102503.56;7369026;19;20473;-68
2023/05/25 09:54:32;;;;;;;11.48;1.50;;;;;;;18.36;57.14;102507.22;7369882;19;20018;-67
2023/05/25 09:57:03;;;;;;;10.40;1.65;;;;;;;18.28;57.48;102507.19;7368082;19;20644;-68
2023/05/25 09:59:30;;;;;;;6.45;1.20;;;;;;;18.18;57.30;102503.84;7368627;19;20022;-67
2023/05/25 10:01:58;;;;;;;8.65;1.50;;;;;;;18.17;58.04;102499.50;7362538;19;20014;-66
2023/05/25 10:04:25;;;;;;;11.63;1.33;;;;;;;18.10;58.79;102501.97;7367504;19;20022;-67
2023/05/25 10:06:53;;;;;;;7.53;1.52;;;;;;;18.14;59.13;102502.47;7368529;19;20014;-67
2023/05/25 10:09:21;;;;;;;7.13;1.38;;;;;;;18.23;58.15;102498.84;7366991;19;20051;-68
2023/05/25 10:11:51;;;;;;;10.77;1.38;;;;;;;18.34;57.47;102502.03;7367130;19;20479;-68
2023/05/25 10:14:24;;;;;;;8.68;1.45;;;;;;;18.45;57.92;102516.06;7365897;19;20506;-68
2023/05/25 10:16:58;;;;;;;8.57;1.67;;;;;;;18.45;57.10;102522.22;7362077;19;20029;-68
2023/05/25 10:19:40;;;;;;;6.78;1.58;;;;;;;18.47;57.27;102517.56;7366420;19;20014;-68
2023/05/25 10:22:14;;;;;;;7.65;1.33;;;;;;;18.58;57.46;102522.63;7367983;19;20425;-68
2023/05/25 10:24:52;;;;;;;8.18;1.27;;;;;;;18.69;56.78;102522.31;7366381;19;20010;-68
2023/05/25 10:27:23;;;;;;;3.50;1.13;;;;;;;18.60;56.33;102535.78;7367870;19;20056;-67
2023/05/25 10:29:55;;;;;;;6.15;1.00;;;;;;;18.46;56.09;102521.22;7364395;19;20017;-67
2023/05/25 10:32:23;;;;;;;12.02;1.20;;;;;;;18.43;56.87;102526.91;7363733;19;20022;-68
2023/05/25 10:34:52;;;;;;;7.13;0.98;;;;;;;18.39;56.82;102522.88;7364429;19;20021;-69
2023/05/25 10:37:22;;;;;;;6.82;1.30;;;;;;;18.13;57.75;102520.31;7365454;19;20015;-66
2023/05/25 10:39:50;;;;;;;11.00;1.92;;;;;;;18.19;58.64;102526.78;7365294;19;20010;-67
2023/05/25 10:42:17;;;;;;;9.70;1.13;;;;;;;18.22;58.99;102526.50;7350281;19;20849;-67
2023/05/25 10:44:45;;;;;;;7.20;1.52;;;;;;;18.23;59.67;102520.16;7356283;19;20018;-68
2023/05/25 10:47:15;;;;;;;6.90;1.02;;;;;;;18.23;59.03;102525.50;7352910;19;20014;-66
2023/05/25 10:49:52;;;;;;;8.63;1.35;;;;;;;18.27;58.84;102530.34;7357005;19;20020;-68
2023/05/25 10:52:20;;;;;;;8.65;1.35;;;;;;;18.36;58.78;102534.69;7356073;19;20022;-67
2023/05/25 10:54:47;;;;;;;5.88;1.10;;;;;;;18.37;58.86;102533.72;7356894;19;20480;-67
2023/05/25 10:57:20;;;;;;;8.85;1.55;;;;;;;18.42;59.22;102532.38;7354641;19;20033;-67
2023/05/25 10:59:48;;;;;;;;;;;;;;;18.54;58.89;102523.13;7356959;19;20030;-67
2023/05/25 11:02:15;;;;;;;9.73;1.52;;;;;;;18.60;58.42;102525.97;7354338;19;19938;-67
2023/05/25 11:04:47;;;;;;;9.57;1.60;;;;;;;18.61;58.79;102522.31;7358114;19;20022;-67
2023/05/25 11:07:17;;;;;;;5.35;1.17;;;;;;;18.62;58.60;102525.81;7356669;19;20048;-68
2023/05/25 11:09:57;;;;;;;6.03;1.45;;;;;;;18.64;58.48;102524.63;7353210;19;20025;-68
2023/05/25 11:12:25;;;;;;;7.60;1.60;;;;;;;18.64;58.49;102526.50;7356002;19;20014;-67
2023/05/25 11:15:13;;;;;;;7.28;1.38;;;;;;;18.58;58.72;102522.63;7355489;19;20019;-68
2023/05/25 11:17:55;;;;;;;8.55;1.15;;;;;;;18.34;59.17;102525.19;7355949;19;20010;-68
2023/05/25 11:20:22;;;;;;;11.00;1.52;;;;;;;18.34;59.73;102525.19;7361198;19;20644;-67
2023/05/25 11:22:51;;;;;;;9.30;1.60;;;;;;;18.34;59.59;102520.69;7355307;19;20121;-67
2023/05/25 11:25:37;;;;;;;10.50;2.08;;;;;;;18.36;59.78;102532.03;7358061;19;20069;-69
2023/05/25 11:28:06;;;;;;;7.88;1.90;;;;;;;18.45;59.11;102537.38;7360856;19;20463;-68